createdAt,value
2018-07-30T00:00:17.775Z,0
2018-07-30T00:01:17.679Z,0
2018-07-30T00:02:17.778Z,0
2018-07-30T00:03:17.839Z,0
2018-07-30T00:04:17.744Z,0
2018-07-30T00:05:17.785Z,0
2018-07-30T00:06:17.814Z,0
2018-07-30T00:07:17.721Z,0
2018-07-30T00:08:17.819Z,0
2018-07-30T00:09:17.826Z,0
2018-07-30T00:10:17.751Z,0
2018-07-30T00:11:17.803Z,0
2018-07-30T00:12:17.822Z,0
2018-07-30T00:13:17.751Z,0
2018-07-30T00:14:17.775Z,0
2018-07-30T00:15:17.791Z,0
2018-07-30T00:16:17.843Z,0
2018-07-30T00:17:17.789Z,0
2018-07-30T00:18:17.749Z,0
2018-07-30T00:19:17.720Z,0
2018-07-30T00:20:17.722Z,0
2018-07-30T00:21:17.834Z,0
2018-07-30T00:22:17.729Z,0
2018-07-30T00:23:17.817Z,0
2018-07-30T00:24:17.729Z,0
2018-07-30T00:25:17.733Z,0
2018-07-30T00:26:17.726Z,0
2018-07-30T00:27:17.727Z,0
2018-07-30T00:28:17.727Z,0
2018-07-30T00:29:17.799Z,0
2018-07-30T00:30:17.797Z,0
2018-07-30T00:31:17.785Z,0
2018-07-30T00:32:17.799Z,0
2018-07-30T00:33:17.812Z,0
2018-07-30T00:34:17.803Z,0
2018-07-30T00:35:17.803Z,0
2018-07-30T00:36:17.742Z,0
2018-07-30T00:37:17.741Z,0
2018-07-30T00:38:17.804Z,0
2018-07-30T00:39:17.861Z,0
2018-07-30T00:40:17.739Z,0
2018-07-30T00:41:17.805Z,0
2018-07-30T00:42:17.693Z,0
2018-07-30T00:43:17.807Z,0
2018-07-30T00:44:17.791Z,0
2018-07-30T00:45:17.737Z,0
2018-07-30T00:46:17.775Z,0
2018-07-30T00:47:17.794Z,0
2018-07-30T00:48:17.697Z,0
2018-07-30T00:49:17.801Z,0
2018-07-30T00:50:17.737Z,0
2018-07-30T00:51:17.715Z,0
2018-07-30T00:52:17.789Z,0
2018-07-30T00:53:17.684Z,0
2018-07-30T00:54:17.774Z,0
2018-07-30T00:55:17.834Z,0
2018-07-30T00:56:17.808Z,0
2018-07-30T00:57:17.782Z,0
2018-07-30T00:58:17.724Z,0
2018-07-30T00:59:17.808Z,0
2018-07-30T01:00:17.689Z,0
2018-07-30T01:01:17.726Z,0
2018-07-30T01:02:17.767Z,0
2018-07-30T01:03:17.818Z,0
2018-07-30T01:04:17.853Z,0
2018-07-30T01:05:17.853Z,0
2018-07-30T01:06:17.742Z,0
2018-07-30T01:07:17.823Z,0
2018-07-30T01:08:17.829Z,0
2018-07-30T01:09:17.854Z,0
2018-07-30T01:10:17.749Z,0
2018-07-30T01:11:17.827Z,0
2018-07-30T01:12:17.836Z,0
2018-07-30T01:13:17.797Z,0
2018-07-30T01:14:17.786Z,0
2018-07-30T01:15:17.848Z,0
2018-07-30T01:16:17.828Z,0
2018-07-30T01:17:17.734Z,0
2018-07-30T01:18:17.872Z,0
2018-07-30T01:19:17.738Z,0
2018-07-30T01:20:17.871Z,0
2018-07-30T01:21:17.802Z,0
2018-07-30T01:22:17.839Z,0
2018-07-30T01:23:17.795Z,0
2018-07-30T01:24:17.808Z,0
2018-07-30T01:25:17.853Z,0
2018-07-30T01:26:17.743Z,0
2018-07-30T01:27:17.760Z,0
2018-07-30T01:28:17.807Z,0
2018-07-30T01:29:17.843Z,0
2018-07-30T01:30:17.842Z,0
2018-07-30T01:31:17.821Z,0
2018-07-30T01:32:17.875Z,0
2018-07-30T01:33:17.866Z,0
2018-07-30T01:34:17.842Z,0
2018-07-30T01:35:17.742Z,0
2018-07-30T01:36:17.871Z,0
2018-07-30T01:37:17.748Z,0
2018-07-30T01:38:17.872Z,0
2018-07-30T01:39:17.768Z,0
2018-07-30T01:40:17.887Z,0
2018-07-30T01:41:17.845Z,0
2018-07-30T01:42:17.879Z,0
2018-07-30T01:43:17.818Z,0
2018-07-30T01:44:17.889Z,0
2018-07-30T01:45:17.882Z,0
2018-07-30T01:46:17.831Z,0
2018-07-30T01:47:17.850Z,0
2018-07-30T01:48:17.876Z,0
2018-07-30T01:49:17.759Z,0
2018-07-30T01:50:17.752Z,0
2018-07-30T01:51:17.832Z,0
2018-07-30T01:52:17.877Z,0
2018-07-30T01:53:17.814Z,0
2018-07-30T01:54:17.825Z,0
2018-07-30T01:55:17.797Z,0
2018-07-30T01:56:17.860Z,0
2018-07-30T01:57:17.857Z,0
2018-07-30T01:58:17.863Z,0
2018-07-30T01:59:17.792Z,0
2018-07-30T02:00:17.861Z,0
2018-07-30T02:01:17.793Z,0
2018-07-30T02:02:17.796Z,0
2018-07-30T02:03:17.797Z,0
2018-07-30T02:04:17.844Z,0
2018-07-30T02:05:17.906Z,0
2018-07-30T02:06:17.845Z,0
2018-07-30T02:07:17.833Z,0
2018-07-30T02:08:17.907Z,0
2018-07-30T02:09:17.850Z,0
2018-07-30T02:10:17.925Z,0
2018-07-30T02:11:17.808Z,0
2018-07-30T02:12:17.906Z,0
2018-07-30T02:13:17.873Z,0
2018-07-30T02:14:17.885Z,0
2018-07-30T02:15:17.834Z,0
2018-07-30T02:16:17.908Z,0
2018-07-30T02:17:17.908Z,0
2018-07-30T02:18:17.910Z,0
2018-07-30T02:19:17.846Z,0
2018-07-30T02:20:18.013Z,0
2018-07-30T02:21:17.795Z,0
2018-07-30T02:22:17.810Z,0
2018-07-30T02:23:17.814Z,0
2018-07-30T02:24:17.912Z,0
2018-07-30T02:25:17.906Z,0
2018-07-30T02:26:17.814Z,0
2018-07-30T02:27:17.786Z,0
2018-07-30T02:28:17.850Z,0
2018-07-30T02:29:17.914Z,0
2018-07-30T02:30:17.883Z,0
2018-07-30T02:31:17.842Z,0
2018-07-30T02:32:17.807Z,0
2018-07-30T02:33:17.859Z,0
2018-07-30T02:34:17.904Z,0
2018-07-30T02:35:17.791Z,0
2018-07-30T02:36:17.787Z,0
2018-07-30T02:37:17.825Z,0
2018-07-30T02:38:17.857Z,0
2018-07-30T02:39:17.790Z,0
2018-07-30T02:40:17.918Z,0
2018-07-30T02:41:17.830Z,0
2018-07-30T02:42:17.868Z,0
2018-07-30T02:43:17.889Z,0
2018-07-30T02:44:17.862Z,0
2018-07-30T02:45:17.855Z,0
2018-07-30T02:46:17.930Z,0
2018-07-30T02:47:17.815Z,0
2018-07-30T02:48:17.913Z,0
2018-07-30T02:49:17.917Z,0
2018-07-30T02:50:17.906Z,0
2018-07-30T02:51:17.864Z,0
2018-07-30T02:52:17.929Z,0
2018-07-30T02:53:17.939Z,0
2018-07-30T02:54:17.955Z,0
2018-07-30T02:55:17.835Z,0
2018-07-30T02:56:17.902Z,0
2018-07-30T02:57:17.835Z,0
2018-07-30T02:58:17.845Z,0
2018-07-30T02:59:17.906Z,0
2018-07-30T03:00:17.920Z,0
2018-07-30T03:01:17.840Z,0
2018-07-30T03:02:17.904Z,0
2018-07-30T03:03:17.905Z,0
2018-07-30T03:04:17.898Z,0
2018-07-30T03:05:17.777Z,0
2018-07-30T03:06:17.899Z,0
2018-07-30T03:07:17.837Z,0
2018-07-30T03:08:17.776Z,0
2018-07-30T03:09:17.927Z,0
2018-07-30T03:10:17.864Z,0
2018-07-30T03:11:17.888Z,0
2018-07-30T03:12:17.902Z,0
2018-07-30T03:13:17.781Z,0
2018-07-30T03:14:17.842Z,0
2018-07-30T03:15:17.846Z,0
2018-07-30T03:16:17.939Z,0
2018-07-30T03:17:17.850Z,0
2018-07-30T03:18:17.920Z,0
2018-07-30T03:19:17.853Z,0
2018-07-30T03:20:17.926Z,0
2018-07-30T03:21:17.849Z,0
2018-07-30T03:22:17.851Z,0
2018-07-30T03:23:17.851Z,0
2018-07-30T03:24:17.857Z,5
2018-07-30T03:25:17.892Z,5
2018-07-30T03:26:17.979Z,5
2018-07-30T03:27:17.826Z,5
2018-07-30T03:28:17.822Z,5
2018-07-30T03:29:17.955Z,5
2018-07-30T03:30:17.924Z,11
2018-07-30T03:31:17.899Z,11
2018-07-30T03:32:17.982Z,11
2018-07-30T03:33:17.929Z,11
2018-07-30T03:34:17.960Z,16
2018-07-30T03:35:17.920Z,16
2018-07-30T03:36:17.870Z,16
2018-07-30T03:37:17.848Z,22
2018-07-30T03:38:17.885Z,22
2018-07-30T03:39:17.925Z,22
2018-07-30T03:40:17.928Z,28
2018-07-30T03:41:17.854Z,28
2018-07-30T03:42:17.816Z,33
2018-07-30T03:43:17.928Z,33
2018-07-30T03:44:17.855Z,39
2018-07-30T03:45:17.970Z,39
2018-07-30T03:46:17.960Z,45
2018-07-30T03:47:17.963Z,45
2018-07-30T03:48:17.908Z,50
2018-07-30T03:49:17.842Z,56
2018-07-30T03:50:17.857Z,56
2018-07-30T03:51:17.878Z,61
2018-07-30T03:52:17.981Z,67
2018-07-30T03:53:17.999Z,67
2018-07-30T03:54:17.980Z,73
2018-07-30T03:55:17.877Z,78
2018-07-30T03:56:17.985Z,84
2018-07-30T03:57:17.982Z,84
2018-07-30T03:58:17.849Z,90
2018-07-30T03:59:17.961Z,95
2018-07-30T04:00:18.029Z,101
2018-07-30T04:01:17.864Z,106
2018-07-30T04:02:17.883Z,112
2018-07-30T04:03:17.882Z,112
2018-07-30T04:04:17.913Z,118
2018-07-30T04:05:17.972Z,123
2018-07-30T04:06:17.966Z,129
2018-07-30T04:07:17.976Z,135
2018-07-30T04:08:17.857Z,140
2018-07-30T04:09:17.911Z,146
2018-07-30T04:10:17.973Z,146
2018-07-30T04:11:17.918Z,151
2018-07-30T04:12:17.929Z,157
2018-07-30T04:13:17.947Z,163
2018-07-30T04:14:17.978Z,168
2018-07-30T04:15:17.908Z,174
2018-07-30T04:16:17.978Z,180
2018-07-30T04:17:17.953Z,185
2018-07-30T04:18:17.928Z,191
2018-07-30T04:19:17.976Z,196
2018-07-30T04:20:17.882Z,196
2018-07-30T04:21:17.923Z,202
2018-07-30T04:22:18.104Z,208
2018-07-30T04:23:17.866Z,213
2018-07-30T04:24:17.958Z,219
2018-07-30T04:25:17.996Z,225
2018-07-30T04:26:17.985Z,230
2018-07-30T04:27:17.867Z,236
2018-07-30T04:28:17.992Z,241
2018-07-30T04:29:17.922Z,247
2018-07-30T04:30:18.001Z,253
2018-07-30T04:31:18.003Z,258
2018-07-30T04:32:18.003Z,258
2018-07-30T04:33:17.929Z,264
2018-07-30T04:34:17.887Z,270
2018-07-30T04:35:17.969Z,275
2018-07-30T04:36:17.905Z,281
2018-07-30T04:37:17.899Z,286
2018-07-30T04:38:17.968Z,292
2018-07-30T04:39:17.904Z,292
2018-07-30T04:40:17.907Z,298
2018-07-30T04:41:17.902Z,303
2018-07-30T04:42:17.905Z,303
2018-07-30T04:43:17.976Z,309
2018-07-30T04:44:17.972Z,315
2018-07-30T04:45:17.936Z,320
2018-07-30T04:46:17.940Z,320
2018-07-30T04:47:17.976Z,320
2018-07-30T04:48:18.012Z,331
2018-07-30T04:49:17.981Z,337
2018-07-30T04:50:17.939Z,343
2018-07-30T04:51:18.012Z,348
2018-07-30T04:52:18.019Z,354
2018-07-30T04:53:17.944Z,360
2018-07-30T04:54:17.945Z,365
2018-07-30T04:55:17.878Z,371
2018-07-30T04:56:17.887Z,371
2018-07-30T04:57:17.937Z,371
2018-07-30T04:58:17.962Z,376
2018-07-30T04:59:17.935Z,376
2018-07-30T05:00:17.950Z,382
2018-07-30T05:01:18.016Z,382
2018-07-30T05:02:17.885Z,388
2018-07-30T05:03:17.937Z,393
2018-07-30T05:04:18.026Z,399
2018-07-30T05:05:17.857Z,399
2018-07-30T05:06:17.982Z,410
2018-07-30T05:07:17.895Z,427
2018-07-30T05:08:17.983Z,433
2018-07-30T05:09:17.975Z,450
2018-07-30T05:10:17.892Z,455
2018-07-30T05:11:17.942Z,461
2018-07-30T05:12:17.859Z,466
2018-07-30T05:13:17.879Z,472
2018-07-30T05:14:17.864Z,478
2018-07-30T05:15:17.949Z,483
2018-07-30T05:16:18.028Z,489
2018-07-30T05:17:17.961Z,489
2018-07-30T05:18:17.948Z,495
2018-07-30T05:19:18.038Z,506
2018-07-30T05:20:17.999Z,506
2018-07-30T05:21:17.999Z,506
2018-07-30T05:22:17.971Z,511
2018-07-30T05:23:17.961Z,511
2018-07-30T05:24:17.978Z,517
2018-07-30T05:25:18.000Z,523
2018-07-30T05:26:17.902Z,528
2018-07-30T05:27:17.925Z,540
2018-07-30T05:28:18.003Z,540
2018-07-30T05:29:17.903Z,551
2018-07-30T05:30:17.928Z,551
2018-07-30T05:31:17.927Z,556
2018-07-30T05:32:18.031Z,562
2018-07-30T05:33:17.914Z,562
2018-07-30T05:34:18.041Z,568
2018-07-30T05:35:17.973Z,573
2018-07-30T05:36:18.049Z,579
2018-07-30T05:37:18.080Z,579
2018-07-30T05:38:18.047Z,585
2018-07-30T05:39:18.026Z,590
2018-07-30T05:40:17.916Z,596
2018-07-30T05:41:17.913Z,601
2018-07-30T05:42:18.045Z,607
2018-07-30T05:43:17.982Z,613
2018-07-30T05:44:18.047Z,613
2018-07-30T05:45:18.008Z,618
2018-07-30T05:46:17.925Z,624
2018-07-30T05:47:18.019Z,630
2018-07-30T05:48:18.008Z,641
2018-07-30T05:49:17.921Z,641
2018-07-30T05:50:17.963Z,641
2018-07-30T05:51:18.010Z,810
2018-07-30T05:52:18.017Z,2086
2018-07-30T05:53:17.929Z,3082
2018-07-30T05:54:17.898Z,2947
2018-07-30T05:55:18.058Z,2503
2018-07-30T05:56:18.050Z,1991
2018-07-30T05:57:17.947Z,1653
2018-07-30T05:58:18.061Z,1575
2018-07-30T05:59:17.988Z,1591
2018-07-30T06:00:18.013Z,1693
2018-07-30T06:01:18.028Z,1912
2018-07-30T06:02:18.112Z,1929
2018-07-30T06:03:18.053Z,1856
2018-07-30T06:04:18.063Z,1918
2018-07-30T06:05:17.989Z,2025
2018-07-30T06:06:18.030Z,2064
2018-07-30T06:07:17.953Z,2053
2018-07-30T06:08:18.001Z,2036
2018-07-30T06:09:18.035Z,2047
2018-07-30T06:10:17.992Z,2041
2018-07-30T06:11:17.992Z,1861
2018-07-30T06:12:17.956Z,1665
2018-07-30T06:13:18.032Z,1575
2018-07-30T06:14:18.062Z,1485
2018-07-30T06:15:18.040Z,1462
2018-07-30T06:16:17.974Z,1485
2018-07-30T06:17:17.973Z,1586
2018-07-30T06:18:18.025Z,1884
2018-07-30T06:19:17.974Z,2424
2018-07-30T06:20:18.042Z,2182
2018-07-30T06:21:18.043Z,1884
2018-07-30T06:22:18.012Z,1861
2018-07-30T06:23:17.979Z,1833
2018-07-30T06:24:17.976Z,1811
2018-07-30T06:25:18.001Z,1805
2018-07-30T06:26:18.011Z,1783
2018-07-30T06:27:18.181Z,1766
2018-07-30T06:28:18.049Z,1766
2018-07-30T06:29:18.046Z,1783
2018-07-30T06:30:18.011Z,1828
2018-07-30T06:31:18.087Z,1906
2018-07-30T06:32:18.029Z,1996
2018-07-30T06:33:17.989Z,2070
2018-07-30T06:34:18.029Z,2171
2018-07-30T06:35:18.055Z,2261
2018-07-30T06:36:17.983Z,2340
2018-07-30T06:37:17.983Z,2418
2018-07-30T06:38:17.984Z,2486
2018-07-30T06:39:17.991Z,2548
2018-07-30T06:40:17.990Z,2593
2018-07-30T06:41:18.056Z,2604
2018-07-30T06:42:17.992Z,2593
2018-07-30T06:43:17.991Z,2559
2018-07-30T06:44:17.985Z,2469
2018-07-30T06:45:18.055Z,2379
2018-07-30T06:46:18.077Z,2317
2018-07-30T06:47:18.024Z,2255
2018-07-30T06:48:18.063Z,2295
2018-07-30T06:49:18.079Z,2311
2018-07-30T06:50:17.964Z,2418
2018-07-30T06:51:18.061Z,1811
2018-07-30T06:52:17.964Z,1293
2018-07-30T06:53:18.106Z,2238
2018-07-30T06:54:18.040Z,1254
2018-07-30T06:55:17.930Z,1198
2018-07-30T06:56:18.015Z,1164
2018-07-30T06:57:17.969Z,1226
2018-07-30T06:59:18.016Z,1873
2018-07-30T07:00:17.973Z,3138
2018-07-30T07:01:17.986Z,2818
2018-07-30T07:02:18.021Z,2812
2018-07-30T07:03:18.004Z,3048
2018-07-30T07:04:18.056Z,3037
2018-07-30T07:05:18.091Z,3015
2018-07-30T07:06:17.968Z,3003
2018-07-30T07:07:18.062Z,2992
2018-07-30T07:08:18.041Z,2986
2018-07-30T07:09:17.978Z,2958
2018-07-30T07:10:18.100Z,2941
2018-07-30T07:11:18.086Z,2947
2018-07-30T07:12:18.074Z,2964
2018-07-30T07:13:18.115Z,2981
2018-07-30T07:14:18.050Z,2964
2018-07-30T07:15:17.980Z,2964
2018-07-30T07:16:17.954Z,2958
2018-07-30T07:17:18.017Z,2947
2018-07-30T07:18:18.016Z,2947
2018-07-30T07:19:18.068Z,2958
2018-07-30T07:20:18.000Z,3003
2018-07-30T07:21:18.102Z,3037
2018-07-30T07:22:17.950Z,3076
2018-07-30T07:23:17.993Z,3099
2018-07-30T07:24:18.084Z,3127
2018-07-30T07:25:18.056Z,3161
2018-07-30T07:26:18.048Z,3166
2018-07-30T07:27:17.988Z,3155
2018-07-30T07:28:18.008Z,3161
2018-07-30T07:29:18.113Z,3195
2018-07-30T07:30:18.055Z,3206
2018-07-30T07:31:18.060Z,3183
2018-07-30T07:32:18.112Z,3166
2018-07-30T07:33:18.056Z,3183
2018-07-30T07:34:18.052Z,3189
2018-07-30T07:35:17.992Z,3223
2018-07-30T07:36:17.985Z,3240
2018-07-30T07:37:18.026Z,3251
2018-07-30T07:38:18.084Z,3273
2018-07-30T07:39:18.004Z,3285
2018-07-30T07:40:18.105Z,3307
2018-07-30T07:41:18.043Z,3324
2018-07-30T07:42:18.045Z,3307
2018-07-30T07:43:17.950Z,3313
2018-07-30T07:44:18.000Z,3313
2018-07-30T07:45:18.059Z,3346
2018-07-30T07:46:18.071Z,3341
2018-07-30T07:47:18.128Z,3375
2018-07-30T07:48:18.192Z,3420
2018-07-30T07:49:18.121Z,3448
2018-07-30T07:50:18.229Z,3465
2018-07-30T07:51:18.134Z,3515
2018-07-30T07:52:18.071Z,3560
2018-07-30T07:53:18.069Z,3611
2018-07-30T07:54:18.103Z,3622
2018-07-30T07:55:18.140Z,3628
2018-07-30T07:56:18.104Z,3628
2018-07-30T07:57:18.048Z,3656
2018-07-30T07:58:18.045Z,3645
2018-07-30T07:59:18.049Z,3633
2018-07-30T08:00:18.134Z,3628
2018-07-30T08:01:18.133Z,3633
2018-07-30T08:02:18.030Z,3650
2018-07-30T08:03:18.079Z,3678
2018-07-30T08:04:18.081Z,3684
2018-07-30T08:05:18.081Z,3701
2018-07-30T08:06:18.262Z,3706
2018-07-30T08:07:18.112Z,3706
2018-07-30T08:08:18.092Z,3701
2018-07-30T08:09:18.018Z,3718
2018-07-30T08:10:18.138Z,3757
2018-07-30T08:11:18.133Z,3780
2018-07-30T08:12:18.116Z,3808
2018-07-30T08:13:18.027Z,3830
2018-07-30T08:14:18.097Z,3870
2018-07-30T08:15:18.163Z,3903
2018-07-30T08:16:18.072Z,3943
2018-07-30T08:17:18.157Z,3943
2018-07-30T08:18:18.152Z,3931
2018-07-30T08:19:18.022Z,3909
2018-07-30T08:20:18.091Z,3926
2018-07-30T08:21:18.090Z,3982
2018-07-30T08:22:18.226Z,4072
2018-07-30T08:23:18.030Z,4134
2018-07-30T08:24:18.089Z,4145
2018-07-30T08:25:18.095Z,4156
2018-07-30T08:26:18.036Z,4168
2018-07-30T08:27:18.094Z,4173
2018-07-30T08:28:18.089Z,4123
2018-07-30T08:29:18.100Z,4072
2018-07-30T08:30:18.125Z,4044
2018-07-30T08:31:18.168Z,4066
2018-07-30T08:32:18.049Z,4089
2018-07-30T08:33:18.089Z,4123
2018-07-30T08:34:18.164Z,4151
2018-07-30T08:35:18.064Z,4162
2018-07-30T08:36:18.065Z,4156
2018-07-30T08:37:18.132Z,4128
2018-07-30T08:38:18.132Z,4151
2018-07-30T08:39:18.070Z,4190
2018-07-30T08:40:18.144Z,4235
2018-07-30T08:41:18.024Z,4269
2018-07-30T08:42:18.064Z,4286
2018-07-30T08:43:18.140Z,4314
2018-07-30T08:44:18.078Z,4348
2018-07-30T08:45:18.171Z,4387
2018-07-30T08:46:18.173Z,4393
2018-07-30T08:47:18.122Z,4410
2018-07-30T08:48:18.171Z,4443
2018-07-30T08:49:18.114Z,4455
2018-07-30T08:50:18.069Z,4449
2018-07-30T08:51:18.178Z,4449
2018-07-30T08:52:18.109Z,4449
2018-07-30T08:53:18.178Z,4488
2018-07-30T08:54:18.174Z,4505
2018-07-30T08:55:18.137Z,4528
2018-07-30T08:56:18.052Z,4573
2018-07-30T08:57:18.067Z,4595
2018-07-30T08:58:18.145Z,4646
2018-07-30T08:59:18.148Z,4696
2018-07-30T09:00:18.057Z,4730
2018-07-30T09:01:18.069Z,4719
2018-07-30T09:02:18.082Z,4702
2018-07-30T09:03:18.041Z,4696
2018-07-30T09:04:18.059Z,4668
2018-07-30T09:05:18.124Z,4657
2018-07-30T09:06:18.193Z,4635
2018-07-30T09:07:18.192Z,4651
2018-07-30T09:08:18.156Z,4657
2018-07-30T09:09:18.132Z,4680
2018-07-30T09:10:18.181Z,4685
2018-07-30T09:11:18.133Z,4685
2018-07-30T09:12:18.055Z,4668
2018-07-30T09:13:18.192Z,4691
2018-07-30T09:14:18.120Z,4702
2018-07-30T09:15:18.181Z,4730
2018-07-30T09:16:18.115Z,4725
2018-07-30T09:17:18.246Z,4702
2018-07-30T09:18:18.193Z,4702
2018-07-30T09:19:18.144Z,4747
2018-07-30T09:20:18.124Z,4753
2018-07-30T09:21:18.137Z,4702
2018-07-30T09:22:18.130Z,4668
2018-07-30T09:23:18.190Z,4713
2018-07-30T09:24:18.189Z,4786
2018-07-30T09:25:18.164Z,4876
2018-07-30T09:26:18.168Z,4933
2018-07-30T09:27:18.104Z,4938
2018-07-30T09:28:18.107Z,4944
2018-07-30T09:29:18.114Z,5006
2018-07-30T09:30:18.214Z,5023
2018-07-30T09:31:18.173Z,5011
2018-07-30T09:32:18.108Z,4978
2018-07-30T09:33:18.173Z,4955
2018-07-30T09:34:18.107Z,4966
2018-07-30T09:35:18.174Z,5023
2018-07-30T09:36:18.098Z,5079
2018-07-30T09:37:18.140Z,5124
2018-07-30T09:38:18.146Z,5158
2018-07-30T09:39:18.226Z,5208
2018-07-30T09:40:18.213Z,5242
2018-07-30T09:41:18.194Z,5225
2018-07-30T09:42:18.209Z,5197
2018-07-30T09:43:18.179Z,5169
2018-07-30T09:44:18.156Z,5141
2018-07-30T09:45:18.154Z,5175
2018-07-30T09:46:18.183Z,5214
2018-07-30T09:47:18.119Z,5236
2018-07-30T09:48:18.116Z,5214
2018-07-30T09:49:18.182Z,5175
2018-07-30T09:50:18.184Z,5141
2018-07-30T09:51:18.136Z,5124
2018-07-30T09:52:18.185Z,5101
2018-07-30T09:53:18.123Z,5118
2018-07-30T09:54:18.186Z,5130
2018-07-30T09:55:18.121Z,5135
2018-07-30T09:56:18.294Z,5175
2018-07-30T09:57:18.109Z,5208
2018-07-30T09:58:18.090Z,5242
2018-07-30T09:59:18.130Z,5231
2018-07-30T10:00:18.225Z,5191
2018-07-30T10:01:18.151Z,5146
2018-07-30T10:02:18.099Z,5169
2018-07-30T10:03:18.227Z,5191
2018-07-30T10:04:18.221Z,5203
2018-07-30T10:05:18.168Z,5248
2018-07-30T10:06:18.286Z,5253
2018-07-30T10:07:18.162Z,5276
2018-07-30T10:08:18.115Z,5315
2018-07-30T10:09:18.156Z,5338
2018-07-30T10:10:18.236Z,5349
2018-07-30T10:11:18.175Z,5388
2018-07-30T10:12:18.200Z,5400
2018-07-30T10:13:18.228Z,5450
2018-07-30T10:14:18.238Z,5450
2018-07-30T10:15:18.237Z,5428
2018-07-30T10:16:18.200Z,5388
2018-07-30T10:17:18.201Z,5332
2018-07-30T10:18:18.307Z,5326
2018-07-30T10:19:18.248Z,5338
2018-07-30T10:20:18.237Z,5349
2018-07-30T10:21:18.228Z,5405
2018-07-30T10:22:18.228Z,5450
2018-07-30T10:23:18.225Z,5422
2018-07-30T10:24:18.228Z,5377
2018-07-30T10:25:18.241Z,5310
2018-07-30T10:26:18.173Z,5231
2018-07-30T10:27:18.213Z,5186
2018-07-30T10:28:18.182Z,5090
2018-07-30T10:29:18.265Z,5056
2018-07-30T10:30:18.244Z,5023
2018-07-30T10:31:18.211Z,5096
2018-07-30T10:32:18.243Z,5107
2018-07-30T10:33:18.171Z,5118
2018-07-30T10:34:18.217Z,5405
2018-07-30T10:35:18.275Z,5501
2018-07-30T10:36:18.083Z,5529
2018-07-30T10:37:18.194Z,5518
2018-07-30T10:38:18.327Z,5512
2018-07-30T10:39:18.151Z,5495
2018-07-30T10:40:18.183Z,5439
2018-07-30T10:41:18.201Z,5394
2018-07-30T10:42:18.179Z,5360
2018-07-30T10:43:18.109Z,5360
2018-07-30T10:44:18.179Z,5270
2018-07-30T10:45:18.229Z,5383
2018-07-30T10:46:18.258Z,5478
2018-07-30T10:47:18.247Z,5433
2018-07-30T10:48:18.229Z,5450
2018-07-30T10:49:18.161Z,5450
2018-07-30T10:50:18.224Z,5332
2018-07-30T10:51:18.157Z,5101
2018-07-30T10:52:18.181Z,5355
2018-07-30T10:53:18.265Z,5293
2018-07-30T10:54:18.247Z,5253
2018-07-30T10:55:18.206Z,5203
2018-07-30T10:56:18.231Z,5383
2018-07-30T10:57:18.233Z,5495
2018-07-30T10:58:18.236Z,5591
2018-07-30T10:59:18.235Z,5641
2018-07-30T11:00:18.167Z,5653
2018-07-30T11:01:18.233Z,5653
2018-07-30T11:02:18.166Z,5715
2018-07-30T11:03:18.235Z,5765
2018-07-30T11:04:18.167Z,5754
2018-07-30T11:05:18.171Z,5686
2018-07-30T11:06:18.200Z,5630
2018-07-30T11:07:18.179Z,5619
2018-07-30T11:08:18.240Z,5658
2018-07-30T11:09:18.267Z,5821
2018-07-30T11:10:18.237Z,5152
2018-07-30T11:11:18.273Z,5023
2018-07-30T11:12:18.157Z,6075
2018-07-30T11:13:18.216Z,6170
2018-07-30T11:14:18.263Z,6288
2018-07-30T11:15:18.268Z,6316
2018-07-30T11:16:18.207Z,5501
2018-07-30T11:18:18.207Z,5248
2018-07-30T11:19:18.264Z,4533
2018-07-30T11:20:18.168Z,4753
2018-07-30T11:21:18.210Z,6457
2018-07-30T11:22:18.269Z,6744
2018-07-30T11:23:18.221Z,6716
2018-07-30T11:24:18.278Z,6271
2018-07-30T11:25:18.259Z,5844
2018-07-30T11:26:18.262Z,4831
2018-07-30T11:27:18.156Z,3858
2018-07-30T11:28:18.175Z,3735
2018-07-30T11:29:18.275Z,2981
2018-07-30T11:30:18.204Z,3178
2018-07-30T11:31:18.227Z,2784
2018-07-30T11:32:18.274Z,2722
2018-07-30T11:33:18.253Z,2683
2018-07-30T11:34:18.216Z,4376
2018-07-30T11:35:18.291Z,6294
2018-07-30T11:36:18.296Z,6440
2018-07-30T11:37:18.232Z,3808
2018-07-30T11:38:18.222Z,2514
2018-07-30T11:39:18.246Z,4083
2018-07-30T11:40:18.236Z,4567
2018-07-30T11:41:18.220Z,3211
2018-07-30T11:42:18.241Z,4606
2018-07-30T11:43:18.228Z,5968
2018-07-30T11:44:18.246Z,2480
2018-07-30T11:45:18.221Z,6120
2018-07-30T11:46:18.286Z,6266
2018-07-30T11:47:18.303Z,6305
2018-07-30T11:48:18.257Z,6423
2018-07-30T11:49:18.266Z,6468
2018-07-30T11:50:18.161Z,6513
2018-07-30T11:51:18.244Z,6541
2018-07-30T11:52:18.291Z,4443
2018-07-30T11:53:18.188Z,3729
2018-07-30T11:54:18.295Z,3566
2018-07-30T11:55:18.247Z,3633
2018-07-30T11:56:18.171Z,3571
2018-07-30T11:57:18.239Z,3071
2018-07-30T11:58:18.292Z,3701
2018-07-30T11:59:18.193Z,3386
2018-07-30T12:00:18.275Z,5085
2018-07-30T12:01:18.299Z,5377
2018-07-30T12:02:18.241Z,3605
2018-07-30T12:03:18.314Z,5113
2018-07-30T12:04:18.311Z,6513
2018-07-30T12:05:18.280Z,6181
2018-07-30T12:06:18.216Z,6541
2018-07-30T12:07:18.288Z,6541
2018-07-30T12:08:18.221Z,6091
2018-07-30T12:09:18.278Z,6266
2018-07-30T12:10:18.235Z,2621
2018-07-30T12:11:18.286Z,5225
2018-07-30T12:12:18.285Z,5872
2018-07-30T12:13:18.282Z,2418
2018-07-30T12:14:18.284Z,5636
2018-07-30T12:15:18.222Z,2143
2018-07-30T12:16:18.326Z,5580
2018-07-30T12:17:18.211Z,5439
2018-07-30T12:18:18.242Z,5073
2018-07-30T12:19:18.269Z,5495
2018-07-30T12:20:18.308Z,2424
2018-07-30T12:21:18.326Z,3346
2018-07-30T12:22:18.292Z,5540
2018-07-30T12:23:18.292Z,5529
2018-07-30T12:24:18.314Z,5619
2018-07-30T12:25:18.272Z,5647
2018-07-30T12:26:18.312Z,5613
2018-07-30T12:27:18.266Z,5602
2018-07-30T12:28:18.333Z,1738
2018-07-30T12:29:18.324Z,1985
2018-07-30T12:30:18.364Z,5658
2018-07-30T12:31:18.333Z,5332
2018-07-30T12:32:18.318Z,1788
2018-07-30T12:33:18.326Z,5439
2018-07-30T12:34:18.271Z,5141
2018-07-30T12:35:18.319Z,2851
2018-07-30T12:36:18.422Z,4837
2018-07-30T12:37:18.333Z,1530
2018-07-30T12:38:18.322Z,4820
2018-07-30T12:39:18.303Z,1580
2018-07-30T12:40:18.304Z,3026
2018-07-30T12:41:18.208Z,1648
2018-07-30T12:42:18.337Z,1659
2018-07-30T12:43:18.308Z,5068
2018-07-30T12:44:18.268Z,5130
2018-07-30T12:45:18.281Z,5186
2018-07-30T12:46:18.240Z,5236
2018-07-30T12:47:18.183Z,5293
2018-07-30T12:48:18.286Z,5197
2018-07-30T12:49:18.241Z,5242
2018-07-30T12:50:18.298Z,5248
2018-07-30T12:51:18.317Z,5197
2018-07-30T12:52:18.269Z,5169
2018-07-30T12:53:18.301Z,5158
2018-07-30T12:54:18.248Z,5152
2018-07-30T12:55:18.247Z,1479
2018-07-30T12:56:18.335Z,1406
2018-07-30T12:57:18.338Z,1411
2018-07-30T12:58:18.351Z,1558
2018-07-30T12:59:18.280Z,4528
2018-07-30T13:00:18.317Z,4837
2018-07-30T13:01:18.274Z,4938
2018-07-30T13:02:18.340Z,5000
2018-07-30T13:03:18.339Z,4961
2018-07-30T13:04:18.342Z,4938
2018-07-30T13:05:18.341Z,4961
2018-07-30T13:06:18.319Z,4950
2018-07-30T13:07:18.352Z,4995
2018-07-30T13:08:18.395Z,4995
2018-07-30T13:09:18.298Z,4921
2018-07-30T13:10:18.340Z,4865
2018-07-30T13:11:18.244Z,4820
2018-07-30T13:12:18.360Z,4696
2018-07-30T13:13:18.325Z,4651
2018-07-30T13:14:18.361Z,4730
2018-07-30T13:15:18.290Z,4741
2018-07-30T13:16:18.290Z,4702
2018-07-30T13:17:18.269Z,4657
2018-07-30T13:18:18.353Z,4635
2018-07-30T13:19:18.342Z,1552
2018-07-30T13:20:18.308Z,1333
2018-07-30T13:21:18.460Z,1248
2018-07-30T13:22:18.300Z,1209
2018-07-30T13:23:18.370Z,1344
2018-07-30T13:24:18.425Z,1288
2018-07-30T13:25:18.297Z,1400
2018-07-30T13:26:18.393Z,1462
2018-07-30T13:27:18.333Z,1490
2018-07-30T13:28:18.310Z,1535
2018-07-30T13:29:18.365Z,1597
2018-07-30T13:30:18.320Z,1636
2018-07-30T13:31:18.374Z,1693
2018-07-30T13:32:18.364Z,1794
2018-07-30T13:33:18.389Z,1991
2018-07-30T13:34:18.344Z,1856
2018-07-30T13:35:18.361Z,1912
2018-07-30T13:36:18.345Z,4320
2018-07-30T13:37:18.237Z,4803
2018-07-30T13:38:18.343Z,4781
2018-07-30T13:39:18.296Z,4702
2018-07-30T13:40:18.276Z,1687
2018-07-30T13:41:18.347Z,1541
2018-07-30T13:42:18.344Z,1456
2018-07-30T13:43:18.397Z,1395
2018-07-30T13:44:18.347Z,1327
2018-07-30T13:45:18.281Z,1260
2018-07-30T13:46:18.423Z,1170
2018-07-30T13:47:18.308Z,1085